Terminal Aerodrome Forecast
Issued by NWS

Home | Current Version | Previous Version | Text Only | Print | Product List | Glossary On
Versions: 1 2 3 4 5 6 7 8 9 10 11 12
000
FTUS42 KMLB 012320
TAFSFB
TAF
KSFB 012320Z 0200/0224 12011KT P6SM FEW045 SCT250
     FM020300 15004KT P6SM SCT250
     FM021400 18008KT P6SM SCT040 SCT250
     FM022100 14011KT P6SM SCT040 SCT060=

USA.gov is the U.S. government's official web portal to all federal, state and local government web resources and services.